createdAt,value
2022-07-25T00:02:13.986Z,99.90
2022-07-25T00:04:39.232Z,99.90
2022-07-25T00:07:03.162Z,99.90
2022-07-25T00:09:26.806Z,99.90
2022-07-25T00:11:50.565Z,99.90
2022-07-25T00:14:14.291Z,99.90
2022-07-25T00:16:38.022Z,99.90
2022-07-25T00:19:02.221Z,99.90
2022-07-25T00:21:27.396Z,99.90
2022-07-25T00:23:51.120Z,99.90
2022-07-25T00:26:14.851Z,99.90
2022-07-25T00:28:38.504Z,99.90
2022-07-25T00:31:02.315Z,99.90
2022-07-25T00:33:26.010Z,99.90
2022-07-25T00:35:49.772Z,99.90
2022-07-25T00:38:14.781Z,99.90
2022-07-25T00:40:38.527Z,99.90
2022-07-25T00:43:02.270Z,99.90
2022-07-25T00:45:26.183Z,99.90
2022-07-25T00:47:49.821Z,99.90
2022-07-25T00:50:13.529Z,99.90
2022-07-25T00:52:37.620Z,99.90
2022-07-25T00:55:03.215Z,99.90
2022-07-25T00:57:26.807Z,99.90
2022-07-25T00:59:50.531Z,99.90
2022-07-25T01:02:14.305Z,99.90
2022-07-25T01:04:38.121Z,99.90
2022-07-25T01:07:02.165Z,99.90
2022-07-25T01:09:26.516Z,99.90
2022-07-25T01:11:51.613Z,99.90
2022-07-25T01:14:15.379Z,99.90
2022-07-25T01:16:41.075Z,99.90
2022-07-25T01:19:05.023Z,99.90
2022-07-25T01:21:30.551Z,99.90
2022-07-25T01:23:54.240Z,99.90
2022-07-25T01:26:17.992Z,99.90
2022-07-25T01:28:41.746Z,99.90
2022-07-25T01:31:05.953Z,99.90
2022-07-25T01:33:29.716Z,99.90
2022-07-25T01:35:53.781Z,99.90
2022-07-25T01:38:19.056Z,99.90
2022-07-25T01:40:44.309Z,99.90
2022-07-25T01:43:08.978Z,99.90
2022-07-25T01:45:33.064Z,99.90
2022-07-25T01:47:56.808Z,99.90
2022-07-25T01:50:20.716Z,99.90
2022-07-25T01:52:44.710Z,99.90
2022-07-25T01:55:11.049Z,99.90
2022-07-25T01:57:36.174Z,99.90
2022-07-25T02:00:00.757Z,99.90
2022-07-25T02:02:24.439Z,99.90
2022-07-25T02:04:48.142Z,99.90
2022-07-25T02:07:11.949Z,99.90
2022-07-25T02:09:35.647Z,99.90
2022-07-25T02:12:00.857Z,99.90
2022-07-25T02:14:24.896Z,99.90
2022-07-25T02:16:48.575Z,99.90
2022-07-25T02:19:12.385Z,99.90
2022-07-25T02:21:36.290Z,99.90
2022-07-25T02:23:59.995Z,99.90
2022-07-25T02:26:23.686Z,99.90
2022-07-25T02:28:48.741Z,99.90
2022-07-25T02:31:12.584Z,99.90
2022-07-25T02:33:36.550Z,99.90
2022-07-25T02:36:00.388Z,99.90
2022-07-25T02:38:24.216Z,99.90
2022-07-25T02:40:48.588Z,99.90
2022-07-25T02:43:12.231Z,99.90
2022-07-25T02:45:40.008Z,99.90
2022-07-25T02:48:03.647Z,99.90
2022-07-25T02:50:27.539Z,99.90
2022-07-25T02:52:51.164Z,99.90
2022-07-25T02:55:14.822Z,99.90
2022-07-25T02:57:38.540Z,99.90
2022-07-25T03:00:02.474Z,99.90
2022-07-25T03:02:27.585Z,99.90
2022-07-25T03:04:51.308Z,99.90
2022-07-25T03:07:14.976Z,99.90
2022-07-25T03:09:38.823Z,99.90
2022-07-25T03:12:02.484Z,99.90
2022-07-25T03:14:26.262Z,99.90
2022-07-25T03:16:49.943Z,99.90
2022-07-25T03:19:15.092Z,99.90
2022-07-25T03:21:38.800Z,99.90
2022-07-25T03:24:02.540Z,99.90
2022-07-25T03:26:26.248Z,99.90
2022-07-25T03:28:49.968Z,99.90
2022-07-25T03:31:13.656Z,99.90
2022-07-25T03:33:37.427Z,99.90
2022-07-25T03:36:02.577Z,99.90
2022-07-25T03:38:26.256Z,99.90
2022-07-25T03:40:49.956Z,99.90
2022-07-25T03:43:13.655Z,99.90
2022-07-25T03:45:37.350Z,99.90
2022-07-25T03:48:01.143Z,99.90
2022-07-25T03:50:24.842Z,99.90
2022-07-25T03:52:50.058Z,99.90
2022-07-25T03:55:14.276Z,99.90
2022-07-25T03:57:38.012Z,99.90
2022-07-25T04:00:01.717Z,99.90
2022-07-25T04:02:29.626Z,99.90
2022-07-25T04:04:54.465Z,99.90
2022-07-25T04:07:18.287Z,99.90
2022-07-25T04:09:43.539Z,99.90
2022-07-25T04:12:08.133Z,99.90
2022-07-25T04:14:31.756Z,99.90
2022-07-25T04:16:55.530Z,99.90
2022-07-25T04:19:19.279Z,99.90
2022-07-25T04:21:43.018Z,99.90
2022-07-25T04:24:07.606Z,99.90
2022-07-25T04:26:32.991Z,99.90
2022-07-25T04:28:57.764Z,99.90
2022-07-25T04:31:21.543Z,99.90
2022-07-25T04:33:45.464Z,99.90
2022-07-25T04:36:10.049Z,99.90
2022-07-25T04:38:34.088Z,99.90
2022-07-25T04:40:57.813Z,99.90
2022-07-25T04:43:23.276Z,99.90
2022-07-25T04:45:47.112Z,99.90
2022-07-25T04:48:10.806Z,99.90
2022-07-25T04:50:34.524Z,99.90
2022-07-25T04:52:58.599Z,99.90
2022-07-25T04:55:23.338Z,99.90
2022-07-25T04:57:47.899Z,99.90
2022-07-25T05:00:14.387Z,99.90
2022-07-25T05:02:39.820Z,99.90
2022-07-25T05:05:04.738Z,99.90
2022-07-25T05:07:28.518Z,99.90
2022-07-25T05:09:52.289Z,99.90
2022-07-25T05:12:16.140Z,99.90
2022-07-25T05:14:40.044Z,99.90
2022-07-25T05:17:05.120Z,99.90
2022-07-25T05:19:28.816Z,99.90
2022-07-25T05:21:52.483Z,99.90
2022-07-25T05:24:16.189Z,99.90
2022-07-25T05:26:39.896Z,99.90
2022-07-25T05:29:03.788Z,99.90
2022-07-25T05:31:27.500Z,99.90
2022-07-25T05:33:52.724Z,99.90
2022-07-25T05:36:16.913Z,99.90
2022-07-25T05:38:40.683Z,99.90
2022-07-25T05:41:04.380Z,99.90
2022-07-25T05:43:28.127Z,99.90
2022-07-25T05:45:51.777Z,99.90
2022-07-25T05:48:15.789Z,99.90
2022-07-25T05:50:41.357Z,99.90
2022-07-25T05:53:05.167Z,99.90
2022-07-25T05:55:28.840Z,99.90
2022-07-25T05:57:52.657Z,99.90
2022-07-25T06:00:17.149Z,99.90
2022-07-25T06:02:40.997Z,99.90
2022-07-25T06:05:05.075Z,99.90
2022-07-25T06:07:30.265Z,99.90
2022-07-25T06:09:53.988Z,99.90
2022-07-25T06:12:17.856Z,99.90
2022-07-25T06:14:41.451Z,99.90
2022-07-25T06:17:06.719Z,99.90
2022-07-25T06:19:30.401Z,99.90
2022-07-25T06:21:54.905Z,99.90
2022-07-25T06:24:20.091Z,99.90
2022-07-25T06:26:44.027Z,99.90
2022-07-25T06:29:07.723Z,99.90
2022-07-25T06:31:31.568Z,96.60
2022-07-25T06:33:55.243Z,95.50
2022-07-25T06:36:18.994Z,94.90
2022-07-25T06:38:42.656Z,94.20
2022-07-25T06:41:08.056Z,94.00
2022-07-25T06:43:31.697Z,92.50
2022-07-25T06:45:55.447Z,92.30
2022-07-25T06:48:19.802Z,92.60
2022-07-25T06:50:43.939Z,93.10
2022-07-25T06:53:07.628Z,88.30
2022-07-25T06:55:31.371Z,90.30
2022-07-25T06:57:56.428Z,87.50
2022-07-25T07:00:20.405Z,89.70
2022-07-25T07:02:53.417Z,85.90
2022-07-25T07:05:17.364Z,87.90
2022-07-25T07:07:45.716Z,88.90
2022-07-25T07:10:11.677Z,83.80
2022-07-25T07:12:35.336Z,83.60
2022-07-25T07:15:00.636Z,87.60
2022-07-25T07:17:24.311Z,81.90
2022-07-25T07:19:48.055Z,83.80
2022-07-25T07:22:11.714Z,89.50
2022-07-25T07:24:42.727Z,87.80
2022-07-25T07:27:08.893Z,89.50
2022-07-25T07:29:32.616Z,90.70
2022-07-25T07:31:57.793Z,80.20
2022-07-25T07:34:21.975Z,83.70
2022-07-25T07:36:45.810Z,83.20
2022-07-25T07:39:09.580Z,84.50
2022-07-25T07:41:33.437Z,85.00
2022-07-25T07:43:57.214Z,86.80
2022-07-25T07:46:21.009Z,83.30
2022-07-25T07:48:47.307Z,84.40
2022-07-25T07:51:11.068Z,83.40
2022-07-25T07:54:00.749Z,84.40
2022-07-25T07:56:24.481Z,84.60
2022-07-25T07:58:48.401Z,86.00
2022-07-25T08:01:12.366Z,86.60
2022-07-25T08:03:36.162Z,85.30
2022-07-25T08:06:01.462Z,85.30
2022-07-25T08:08:29.197Z,87.40
2022-07-25T08:10:58.746Z,86.20
2022-07-25T08:13:25.528Z,88.60
2022-07-25T08:15:51.902Z,86.30
2022-07-25T08:18:17.394Z,84.10
2022-07-25T08:20:42.337Z,84.00
2022-07-25T08:23:07.766Z,88.40
2022-07-25T08:25:32.297Z,85.60
2022-07-25T08:27:55.978Z,84.20
2022-07-25T08:30:19.765Z,87.00
2022-07-25T08:32:52.008Z,85.30
2022-07-25T08:35:15.852Z,86.10
2022-07-25T08:37:39.524Z,87.00
2022-07-25T08:40:05.337Z,86.80
2022-07-25T08:42:29.030Z,85.20
2022-07-25T08:45:07.799Z,87.60
2022-07-25T08:47:33.224Z,88.30
2022-07-25T08:50:02.340Z,87.00
2022-07-25T08:52:28.572Z,87.00
2022-07-25T08:54:52.759Z,85.60
2022-07-25T08:57:18.591Z,85.20
2022-07-25T08:59:42.480Z,85.70
2022-07-25T09:02:08.453Z,84.10
2022-07-25T09:04:34.489Z,84.50
2022-07-25T09:06:58.341Z,87.70
2022-07-25T09:09:32.446Z,84.80
2022-07-25T09:11:56.094Z,84.20
2022-07-25T09:14:21.140Z,83.60
2022-07-25T09:16:48.063Z,84.60
2022-07-25T09:19:14.578Z,84.60
2022-07-25T09:21:39.863Z,85.70
2022-07-25T09:24:12.458Z,83.80
2022-07-25T09:26:46.075Z,86.00
2022-07-25T09:29:14.542Z,83.40
2022-07-25T09:31:43.040Z,86.80
2022-07-25T09:34:10.099Z,86.80
2022-07-25T09:36:35.471Z,85.60
2022-07-25T09:39:02.430Z,84.20
2022-07-25T09:41:36.307Z,83.30
2022-07-25T09:44:00.079Z,84.10
2022-07-25T09:46:32.135Z,83.40
2022-07-25T09:49:00.047Z,83.00
2022-07-25T09:51:24.292Z,82.70
2022-07-25T09:53:48.014Z,84.50
2022-07-25T09:56:11.670Z,83.60
2022-07-25T09:58:35.353Z,84.80
2022-07-25T10:01:05.183Z,82.10
2022-07-25T10:03:46.479Z,84.80
2022-07-25T10:06:22.535Z,84.70
2022-07-25T10:08:46.521Z,80.80
2022-07-25T10:11:21.897Z,80.80
2022-07-25T10:13:45.672Z,80.60
2022-07-25T10:16:18.641Z,79.50
2022-07-25T10:18:50.940Z,77.90
2022-07-25T10:21:26.395Z,81.20
2022-07-25T10:24:02.483Z,81.40
2022-07-25T10:26:26.632Z,78.80
2022-07-25T10:28:52.865Z,76.70
2022-07-25T10:31:22.055Z,78.70
2022-07-25T10:33:50.833Z,79.90
2022-07-25T10:36:15.923Z,74.50
2022-07-25T10:38:42.060Z,74.80
2022-07-25T10:41:08.987Z,74.70
2022-07-25T10:43:39.160Z,71.20
2022-07-25T10:46:02.925Z,74.60
2022-07-25T10:48:29.648Z,71.40
2022-07-25T10:50:59.161Z,71.70
2022-07-25T10:53:39.580Z,74.90
2022-07-25T10:56:09.703Z,76.00
2022-07-25T10:58:50.056Z,69.20
2022-07-25T11:01:15.356Z,67.00
2022-07-25T11:03:39.101Z,70.30
2022-07-25T11:06:04.242Z,67.50
2022-07-25T11:08:33.660Z,66.60
2022-07-25T11:10:58.744Z,65.90
2022-07-25T11:13:22.620Z,66.80
2022-07-25T11:15:46.697Z,67.30
2022-07-25T11:18:10.367Z,65.40
2022-07-25T11:20:34.162Z,68.40
2022-07-25T11:22:58.025Z,68.70
2022-07-25T11:25:24.005Z,68.10
2022-07-25T11:27:57.564Z,68.50
2022-07-25T11:30:22.633Z,63.40
2022-07-25T11:32:49.611Z,64.30
2022-07-25T11:35:16.857Z,61.20
2022-07-25T11:37:43.934Z,61.10
2022-07-25T11:40:09.805Z,64.10
2022-07-25T11:42:42.824Z,62.90
2022-07-25T11:45:19.088Z,61.80
2022-07-25T11:47:42.995Z,62.80
2022-07-25T11:50:07.639Z,60.60
2022-07-25T11:52:34.660Z,59.80
2022-07-25T11:55:01.695Z,60.80
2022-07-25T11:57:27.567Z,59.20
2022-07-25T11:59:51.373Z,58.80
2022-07-25T12:02:26.040Z,60.30
2022-07-25T12:04:56.702Z,62.20
2022-07-25T12:07:20.335Z,61.50
2022-07-25T12:09:44.083Z,57.80
2022-07-25T12:12:08.721Z,58.90
2022-07-25T12:14:35.387Z,59.10
2022-07-25T12:16:59.343Z,56.30
2022-07-25T12:19:24.479Z,58.10
2022-07-25T12:21:48.200Z,59.10
2022-07-25T12:24:11.868Z,56.70
2022-07-25T12:26:35.903Z,58.10
2022-07-25T12:28:59.558Z,57.00
2022-07-25T12:31:24.402Z,57.90
2022-07-25T12:33:49.383Z,57.10
2022-07-25T12:36:15.492Z,59.20
2022-07-25T12:38:39.178Z,55.80
2022-07-25T12:41:02.855Z,55.60
2022-07-25T12:43:26.528Z,55.50
2022-07-25T12:45:50.910Z,54.30
2022-07-25T12:48:16.291Z,55.60
2022-07-25T12:50:39.991Z,59.60
2022-07-25T12:53:05.779Z,53.30
2022-07-25T12:55:29.531Z,54.10
2022-07-25T12:57:53.222Z,53.40
2022-07-25T13:00:19.458Z,52.40
2022-07-25T13:02:43.462Z,54.00
2022-07-25T13:05:08.647Z,53.10
2022-07-25T13:07:33.097Z,56.30
2022-07-25T13:09:58.167Z,57.70
2022-07-25T13:12:23.639Z,57.00
2022-07-25T13:14:47.295Z,54.00
2022-07-25T13:17:11.080Z,56.90
2022-07-25T13:19:34.803Z,53.70
2022-07-25T13:21:58.494Z,55.10
2022-07-25T13:24:22.204Z,53.50
2022-07-25T13:26:47.424Z,53.70
2022-07-25T13:29:11.852Z,55.20
2022-07-25T13:31:37.072Z,54.50
2022-07-25T13:34:00.877Z,57.40
2022-07-25T13:36:24.503Z,55.70
2022-07-25T13:38:48.495Z,54.60
2022-07-25T13:41:12.671Z,56.70
2022-07-25T13:43:37.850Z,56.10
2022-07-25T13:46:02.913Z,54.60
2022-07-25T13:48:29.888Z,55.30
2022-07-25T13:50:53.905Z,56.10
2022-07-25T13:53:17.616Z,54.90
2022-07-25T13:55:41.387Z,57.30
2022-07-25T13:58:05.087Z,54.80
2022-07-25T14:00:30.202Z,57.00
2022-07-25T14:02:53.868Z,53.10
2022-07-25T14:05:17.679Z,53.90
2022-07-25T14:07:41.451Z,53.60
2022-07-25T14:10:08.496Z,54.50
2022-07-25T14:12:32.431Z,56.70
2022-07-25T14:14:56.214Z,52.00
2022-07-25T14:17:21.447Z,55.40
2022-07-25T14:19:45.252Z,52.40
2022-07-25T14:22:09.054Z,52.50
2022-07-25T14:24:32.979Z,56.00
2022-07-25T14:26:56.832Z,52.90
2022-07-25T14:29:20.702Z,52.90
2022-07-25T14:31:44.653Z,51.20
2022-07-25T14:34:09.895Z,51.50
2022-07-25T14:36:33.951Z,52.20
2022-07-25T14:38:57.727Z,52.90
2022-07-25T14:41:22.559Z,52.30
2022-07-25T14:43:46.413Z,53.30
2022-07-25T14:46:10.340Z,54.50
2022-07-25T14:48:34.271Z,52.40
2022-07-25T14:50:59.476Z,52.80
2022-07-25T14:53:23.136Z,55.80
2022-07-25T14:55:46.754Z,52.50
2022-07-25T14:58:10.412Z,55.20
2022-07-25T15:00:34.345Z,56.20
2022-07-25T15:02:58.532Z,54.70
2022-07-25T15:05:22.330Z,53.90
2022-07-25T15:07:47.884Z,53.90
2022-07-25T15:10:11.943Z,54.40
2022-07-25T15:12:35.672Z,53.70
2022-07-25T15:14:59.475Z,55.90
2022-07-25T15:17:23.165Z,56.20
2022-07-25T15:19:46.930Z,57.00
2022-07-25T15:22:10.559Z,54.00
2022-07-25T15:25:06.414Z,53.60
2022-07-25T15:27:19.436Z,52.90
2022-07-25T15:29:43.125Z,57.90
2022-07-25T15:32:09.358Z,56.00
2022-07-25T15:34:33.039Z,54.30
2022-07-25T15:36:57.289Z,54.90
2022-07-25T15:39:20.884Z,56.30
2022-07-25T15:41:45.972Z,55.00
2022-07-25T15:44:09.588Z,54.70
2022-07-25T15:46:33.902Z,53.60
2022-07-25T15:48:58.912Z,56.00
2022-07-25T15:51:22.703Z,55.80
2022-07-25T15:53:46.840Z,55.50
2022-07-25T15:56:11.118Z,55.30
2022-07-25T15:58:36.163Z,52.60
2022-07-25T16:00:59.959Z,52.90
2022-07-25T16:03:24.090Z,53.10
2022-07-25T16:05:47.901Z,55.40
2022-07-25T16:08:11.628Z,51.90
2022-07-25T16:10:35.732Z,54.80
2022-07-25T16:12:59.638Z,56.30
2022-07-25T16:15:25.380Z,58.20
2022-07-25T16:17:51.790Z,58.40
2022-07-25T16:20:15.501Z,55.90
2022-07-25T16:22:39.557Z,56.80
2022-07-25T16:25:03.329Z,55.70
2022-07-25T16:27:27.131Z,56.00
2022-07-25T16:29:51.029Z,54.50
2022-07-25T16:32:16.049Z,55.40
2022-07-25T16:34:39.789Z,55.50
2022-07-25T16:37:04.887Z,55.10
2022-07-25T16:39:28.597Z,55.80
2022-07-25T16:41:52.467Z,54.40
2022-07-25T16:44:16.407Z,56.00
2022-07-25T16:46:40.172Z,56.50
2022-07-25T16:49:05.705Z,56.20
2022-07-25T16:51:33.056Z,59.40
2022-07-25T16:53:59.282Z,68.20
2022-07-25T16:56:23.354Z,81.10
2022-07-25T16:58:47.729Z,86.50
2022-07-25T17:01:11.445Z,89.20
2022-07-25T17:03:35.160Z,90.60
2022-07-25T17:06:00.292Z,91.50
2022-07-25T17:08:24.399Z,92.30
2022-07-25T17:10:48.435Z,92.70
2022-07-25T17:13:12.199Z,94.10
2022-07-25T17:15:35.908Z,95.80
2022-07-25T17:18:00.740Z,96.50
2022-07-25T17:20:24.561Z,99.90
2022-07-25T17:22:49.710Z,99.90
2022-07-25T17:25:13.410Z,99.90
2022-07-25T17:27:37.316Z,99.90
2022-07-25T17:30:01.088Z,99.90
2022-07-25T17:32:29.373Z,99.90
2022-07-25T17:34:53.762Z,99.90
2022-07-25T17:37:17.493Z,99.90
2022-07-25T17:39:42.806Z,99.90
2022-07-25T17:42:07.435Z,99.90
2022-07-25T17:44:31.147Z,99.90
2022-07-25T17:46:55.546Z,99.90
2022-07-25T17:49:19.579Z,99.90
2022-07-25T17:51:43.424Z,99.90
2022-07-25T17:54:07.590Z,99.90
2022-07-25T17:56:32.958Z,99.90
2022-07-25T17:58:56.680Z,99.90
2022-07-25T18:01:20.532Z,99.90
2022-07-25T18:03:47.533Z,99.90
2022-07-25T18:06:11.927Z,99.90
2022-07-25T18:08:36.243Z,99.90
2022-07-25T18:10:59.999Z,99.90
2022-07-25T18:13:25.057Z,99.90
2022-07-25T18:15:51.460Z,99.90
2022-07-25T18:18:20.330Z,99.90
2022-07-25T18:20:44.613Z,99.90
2022-07-25T18:23:08.634Z,99.90
2022-07-25T18:25:32.557Z,99.90
2022-07-25T18:27:56.317Z,99.90
2022-07-25T18:30:24.750Z,99.90
2022-07-25T18:32:51.027Z,99.90
2022-07-25T18:35:15.091Z,99.90
2022-07-25T18:37:39.553Z,99.90
2022-07-25T18:40:03.265Z,99.90
2022-07-25T18:42:29.902Z,99.90
2022-07-25T18:44:53.884Z,99.90
2022-07-25T18:47:23.241Z,99.90
2022-07-25T18:49:48.516Z,99.90
2022-07-25T18:52:12.305Z,99.90
2022-07-25T18:54:36.107Z,99.90
2022-07-25T18:57:01.928Z,99.90
2022-07-25T18:59:26.544Z,99.90
2022-07-25T19:01:51.253Z,99.90
2022-07-25T19:04:17.429Z,99.90
2022-07-25T19:06:41.220Z,99.90
2022-07-25T19:09:05.512Z,99.90
2022-07-25T19:11:29.217Z,99.90
2022-07-25T19:13:52.915Z,99.90
2022-07-25T19:16:17.403Z,99.90
2022-07-25T19:18:41.772Z,99.90
2022-07-25T19:21:07.355Z,99.90
2022-07-25T19:23:31.143Z,99.90
2022-07-25T19:25:54.866Z,99.90
2022-07-25T19:28:18.587Z,99.90
2022-07-25T19:30:42.364Z,99.90
2022-07-25T19:33:06.103Z,99.90
2022-07-25T19:35:29.793Z,99.90
2022-07-25T19:37:55.073Z,99.90
2022-07-25T19:40:18.757Z,99.90
2022-07-25T19:42:43.105Z,99.90
2022-07-25T19:45:08.345Z,99.90
2022-07-25T19:47:32.200Z,99.90
2022-07-25T19:49:56.026Z,99.90
2022-07-25T19:52:19.960Z,99.90
2022-07-25T19:54:45.173Z,99.90
2022-07-25T19:57:08.987Z,99.90
2022-07-25T19:59:32.744Z,99.90
2022-07-25T20:01:56.542Z,99.90
2022-07-25T20:04:20.400Z,99.90
2022-07-25T20:06:44.399Z,99.90
2022-07-25T20:09:08.421Z,99.90
2022-07-25T20:11:34.164Z,99.90
2022-07-25T20:13:57.987Z,99.90
2022-07-25T20:16:22.035Z,99.90
2022-07-25T20:18:45.876Z,99.90
2022-07-25T20:21:09.596Z,99.90
2022-07-25T20:23:33.916Z,99.90
2022-07-25T20:25:58.294Z,99.90
2022-07-25T20:28:23.354Z,99.90
2022-07-25T20:30:47.262Z,99.90
2022-07-25T20:33:11.568Z,99.90
2022-07-25T20:35:35.430Z,99.90
2022-07-25T20:37:59.067Z,99.90
2022-07-25T20:40:23.480Z,99.90
2022-07-25T20:42:47.489Z,99.90
2022-07-25T20:45:12.991Z,99.90
2022-07-25T20:47:36.832Z,99.90
2022-07-25T20:50:00.540Z,99.90
2022-07-25T20:52:24.189Z,99.90
2022-07-25T20:54:47.940Z,99.90
2022-07-25T20:57:13.979Z,99.90
2022-07-25T20:59:37.793Z,99.90
2022-07-25T21:02:03.131Z,99.90
2022-07-25T21:04:26.951Z,99.90
2022-07-25T21:06:50.652Z,99.90
2022-07-25T21:09:15.119Z,99.90
2022-07-25T21:11:39.105Z,99.90
2022-07-25T21:14:04.900Z,99.90
2022-07-25T21:16:28.871Z,99.90
2022-07-25T21:18:55.970Z,99.90
2022-07-25T21:21:19.737Z,99.90
2022-07-25T21:23:43.447Z,99.90
2022-07-25T21:26:09.352Z,99.90
2022-07-25T21:28:33.109Z,99.90
2022-07-25T21:30:57.065Z,99.90
2022-07-25T21:33:20.740Z,99.90
2022-07-25T21:35:49.277Z,99.90
2022-07-25T21:38:26.083Z,99.90
2022-07-25T21:40:52.057Z,99.90
2022-07-25T21:43:15.704Z,99.90
2022-07-25T21:45:39.542Z,99.90
2022-07-25T21:48:03.211Z,99.90
2022-07-25T21:50:42.099Z,99.90
2022-07-25T21:53:13.049Z,99.90
2022-07-25T21:55:37.044Z,99.90
2022-07-25T21:58:00.777Z,99.90
2022-07-25T22:00:24.721Z,99.90
2022-07-25T22:02:48.911Z,99.90
2022-07-25T22:05:13.117Z,99.90
2022-07-25T22:07:36.843Z,99.90
2022-07-25T22:10:04.428Z,99.90
2022-07-25T22:12:28.395Z,99.90
2022-07-25T22:14:52.050Z,99.90
2022-07-25T22:17:16.292Z,99.90
2022-07-25T22:19:39.899Z,99.90
2022-07-25T22:22:03.856Z,99.90
2022-07-25T22:24:27.550Z,99.90
2022-07-25T22:26:52.711Z,99.90
2022-07-25T22:29:16.372Z,99.90
2022-07-25T22:31:40.121Z,99.90
2022-07-25T22:34:03.770Z,99.90
2022-07-25T22:36:27.552Z,99.90
2022-07-25T22:38:51.249Z,99.90
2022-07-25T22:41:14.954Z,99.90
2022-07-25T22:43:56.965Z,99.90
2022-07-25T22:46:23.004Z,99.90
2022-07-25T22:48:46.711Z,99.90
2022-07-25T22:51:10.644Z,99.90
2022-07-25T22:53:34.331Z,99.90
2022-07-25T22:55:58.069Z,99.90
2022-07-25T22:58:21.769Z,99.90
2022-07-25T23:00:47.307Z,99.90
2022-07-25T23:03:10.997Z,99.90
2022-07-25T23:05:40.122Z,99.90
2022-07-25T23:08:04.208Z,99.90
2022-07-25T23:10:28.365Z,99.90
2022-07-25T23:12:52.074Z,99.90
2022-07-25T23:15:15.764Z,99.90
2022-07-25T23:17:40.874Z,99.90
2022-07-25T23:20:06.447Z,99.90
2022-07-25T23:22:30.440Z,99.90
2022-07-25T23:24:54.121Z,99.90
2022-07-25T23:27:18.290Z,99.90
2022-07-25T23:29:42.200Z,99.90
2022-07-25T23:32:07.154Z,99.90
2022-07-25T23:34:32.615Z,99.90
2022-07-25T23:36:56.432Z,99.90
2022-07-25T23:39:20.272Z,99.90
2022-07-25T23:41:44.200Z,99.90
2022-07-25T23:44:07.952Z,99.90
2022-07-25T23:46:31.929Z,99.90
2022-07-25T23:48:56.547Z,99.90
2022-07-25T23:51:21.717Z,99.90
2022-07-25T23:53:45.562Z,99.90
2022-07-25T23:56:09.557Z,99.90
2022-07-25T23:58:33.274Z,99.90
